createdAt,value
2022-11-13T00:01:08.445Z,8.88
2022-11-13T00:03:36.207Z,8.88
2022-11-13T00:06:04.617Z,8.85
2022-11-13T00:08:34.277Z,8.83
2022-11-13T00:11:03.618Z,8.82
2022-11-13T00:13:31.485Z,8.79
2022-11-13T00:16:00.874Z,8.77
2022-11-13T00:18:30.784Z,8.72
2022-11-13T00:20:59.459Z,8.69
2022-11-13T00:23:27.243Z,8.67
2022-11-13T00:25:56.628Z,8.65
2022-11-13T00:28:24.500Z,8.66
2022-11-13T00:30:52.497Z,8.68
2022-11-13T00:33:38.331Z,8.68
2022-11-13T00:36:16.872Z,8.68
2022-11-13T00:38:44.958Z,8.66
2022-11-13T00:41:14.368Z,8.65
2022-11-13T00:43:42.988Z,8.63
2022-11-13T00:46:11.226Z,8.61
2022-11-13T00:48:39.548Z,8.58
2022-11-13T00:51:07.774Z,8.57
2022-11-13T00:53:35.843Z,8.54
2022-11-13T00:56:03.853Z,8.52
2022-11-13T00:58:33.372Z,8.50
2022-11-13T01:01:07.560Z,8.46
2022-11-13T01:03:36.031Z,8.43
2022-11-13T01:06:12.075Z,8.40
2022-11-13T01:08:40.068Z,8.41
2022-11-13T01:11:12.424Z,8.38
2022-11-13T01:13:42.688Z,8.37
2022-11-13T01:16:13.479Z,8.35
2022-11-13T01:18:42.883Z,8.37
2022-11-13T01:21:13.337Z,8.38
2022-11-13T01:23:41.601Z,8.38
2022-11-13T01:26:12.868Z,8.37
2022-11-13T01:28:43.586Z,8.36
2022-11-13T01:31:13.491Z,8.35
2022-11-13T01:33:41.587Z,8.34
2022-11-13T01:36:13.111Z,8.34
2022-11-13T01:38:40.918Z,8.31
2022-11-13T01:41:12.221Z,8.30
2022-11-13T01:43:41.403Z,8.28
2022-11-13T01:46:17.310Z,8.25
2022-11-13T01:48:48.591Z,8.24
2022-11-13T01:51:25.295Z,8.22
2022-11-13T01:53:54.428Z,8.21
2022-11-13T01:56:23.620Z,8.21
2022-11-13T01:58:59.991Z,8.18
2022-11-13T02:01:27.924Z,8.17
2022-11-13T02:03:55.937Z,8.18
2022-11-13T02:06:24.123Z,8.20
2022-11-13T02:08:52.563Z,8.22
2022-11-13T02:11:21.877Z,8.23
2022-11-13T02:13:50.519Z,8.22
2022-11-13T02:16:21.347Z,8.23
2022-11-13T02:18:49.490Z,8.21
2022-11-13T02:21:32.902Z,8.21
2022-11-13T02:24:22.061Z,8.20
2022-11-13T02:26:51.974Z,8.22
2022-11-13T02:29:20.082Z,8.19
2022-11-13T02:31:47.915Z,8.20
2022-11-13T02:34:15.746Z,8.19
2022-11-13T02:36:43.892Z,8.19
2022-11-13T02:39:14.423Z,8.17
2022-11-13T02:41:43.862Z,8.17
2022-11-13T02:44:11.820Z,8.17
2022-11-13T02:46:39.705Z,8.16
2022-11-13T02:49:07.716Z,8.17
2022-11-13T02:51:35.553Z,8.18
2022-11-13T02:54:03.635Z,8.18
2022-11-13T02:56:31.545Z,8.19
2022-11-13T02:59:00.890Z,8.19
2022-11-13T03:01:28.782Z,8.18
2022-11-13T03:03:58.015Z,8.18
2022-11-13T03:06:26.327Z,8.16
2022-11-13T03:08:54.482Z,8.15
2022-11-13T03:11:22.565Z,8.14
2022-11-13T03:13:50.411Z,8.10
2022-11-13T03:16:19.643Z,8.08
2022-11-13T03:18:47.525Z,8.07
2022-11-13T03:21:16.839Z,8.06
2022-11-13T03:23:46.135Z,8.05
2022-11-13T03:26:17.894Z,8.03
2022-11-13T03:28:45.651Z,8.00
2022-11-13T03:31:13.944Z,8.00
2022-11-13T03:33:43.861Z,7.99
2022-11-13T03:36:11.702Z,7.98
2022-11-13T03:38:39.706Z,7.99
2022-11-13T03:41:07.530Z,8.00
2022-11-13T03:43:35.348Z,8.00
2022-11-13T03:46:03.559Z,8.00
2022-11-13T03:48:31.764Z,7.98
2022-11-13T03:51:01.467Z,7.97
2022-11-13T03:53:29.628Z,7.94
2022-11-13T03:55:57.403Z,7.93
2022-11-13T03:58:25.713Z,7.91
2022-11-13T04:00:56.139Z,7.89
2022-11-13T04:03:24.407Z,7.86
2022-11-13T04:05:52.761Z,7.84
2022-11-13T04:08:22.192Z,7.81
2022-11-13T04:10:49.953Z,7.79
2022-11-13T04:13:17.765Z,7.78
2022-11-13T04:15:45.739Z,7.75
2022-11-13T04:18:13.903Z,7.71
2022-11-13T04:20:41.739Z,7.67
2022-11-13T04:23:12.604Z,7.66
2022-11-13T04:25:42.107Z,7.66
2022-11-13T04:28:10.697Z,7.65
2022-11-13T04:30:39.198Z,7.65
2022-11-13T04:33:07.713Z,7.65
2022-11-13T04:35:35.733Z,7.63
2022-11-13T04:38:03.709Z,7.61
2022-11-13T04:40:31.776Z,7.58
2022-11-13T04:43:00.132Z,7.56
2022-11-13T04:45:28.733Z,7.53
2022-11-13T04:47:57.278Z,7.50
2022-11-13T04:50:25.223Z,7.45
2022-11-13T04:52:53.213Z,7.39
2022-11-13T04:55:21.365Z,7.32
2022-11-13T04:57:51.593Z,7.29
2022-11-13T05:00:21.377Z,7.26
2022-11-13T05:02:49.241Z,7.25
2022-11-13T05:05:17.375Z,7.22
2022-11-13T05:07:45.577Z,7.21
2022-11-13T05:10:13.911Z,7.13
2022-11-13T05:12:42.202Z,7.06
2022-11-13T05:15:10.530Z,7.07
2022-11-13T05:17:39.980Z,7.08
2022-11-13T05:20:10.902Z,7.10
2022-11-13T05:22:39.041Z,7.11
2022-11-13T05:25:07.592Z,7.03
2022-11-13T05:27:35.671Z,6.89
2022-11-13T05:30:03.550Z,6.76
2022-11-13T05:32:31.415Z,6.72
2022-11-13T05:35:00.626Z,6.67
2022-11-13T05:37:30.055Z,6.67
2022-11-13T05:39:58.060Z,6.71
2022-11-13T05:42:26.037Z,6.74
2022-11-13T05:44:53.885Z,6.77
2022-11-13T05:47:21.791Z,6.79
2022-11-13T05:49:51.960Z,6.80
2022-11-13T05:52:21.255Z,6.80
2022-11-13T05:54:49.079Z,6.81
2022-11-13T05:57:17.302Z,6.80
2022-11-13T05:59:45.117Z,6.80
2022-11-13T06:02:13.332Z,6.81
2022-11-13T06:04:41.363Z,6.81
2022-11-13T06:07:09.234Z,6.79
2022-11-13T06:09:38.641Z,6.80
2022-11-13T06:12:06.969Z,6.79
2022-11-13T06:14:34.910Z,6.79
2022-11-13T06:17:02.739Z,6.78
2022-11-13T06:19:30.971Z,6.75
2022-11-13T06:21:58.958Z,6.72
2022-11-13T06:24:26.710Z,6.69
2022-11-13T06:26:55.933Z,6.68
2022-11-13T06:29:24.048Z,6.64
2022-11-13T06:31:52.060Z,6.62
2022-11-13T06:34:20.027Z,6.61
2022-11-13T06:36:47.915Z,6.59
2022-11-13T06:39:16.227Z,6.56
2022-11-13T06:41:44.259Z,6.54
2022-11-13T06:44:13.550Z,6.53
2022-11-13T06:46:41.424Z,6.50
2022-11-13T06:49:09.439Z,6.47
2022-11-13T06:51:37.174Z,6.46
2022-11-13T06:54:05.579Z,6.44
2022-11-13T06:56:33.503Z,6.42
2022-11-13T06:59:01.861Z,6.40
2022-11-13T07:01:32.490Z,6.42
2022-11-13T07:04:00.334Z,6.43
2022-11-13T07:06:28.523Z,6.42
2022-11-13T07:08:56.410Z,6.41
2022-11-13T07:11:25.056Z,6.40
2022-11-13T07:13:53.031Z,6.39
2022-11-13T07:16:21.176Z,6.37
2022-11-13T07:18:54.508Z,6.33
2022-11-13T07:21:24.566Z,6.32
2022-11-13T07:23:53.036Z,6.32
2022-11-13T07:26:21.041Z,6.30
2022-11-13T07:28:49.504Z,6.28
2022-11-13T07:31:18.932Z,6.28
2022-11-13T07:33:49.523Z,6.30
2022-11-13T07:36:19.267Z,6.32
2022-11-13T07:38:47.184Z,6.32
2022-11-13T07:41:15.029Z,6.32
2022-11-13T07:43:43.285Z,6.31
2022-11-13T07:46:11.854Z,6.31
2022-11-13T07:48:39.755Z,6.30
2022-11-13T07:51:07.610Z,6.30
2022-11-13T07:53:39.216Z,6.31
2022-11-13T07:56:07.804Z,6.30
2022-11-13T07:58:35.637Z,6.32
2022-11-13T08:01:05.283Z,6.34
2022-11-13T08:03:33.411Z,6.34
2022-11-13T08:06:03.117Z,6.34
2022-11-13T08:08:33.854Z,6.34
2022-11-13T08:11:06.896Z,6.33
2022-11-13T08:13:35.524Z,6.35
2022-11-13T08:16:04.148Z,6.35
2022-11-13T08:18:33.036Z,6.37
2022-11-13T08:21:02.781Z,6.38
2022-11-13T08:23:30.640Z,6.38
2022-11-13T08:25:58.995Z,6.38
2022-11-13T08:28:28.629Z,6.39
2022-11-13T08:30:57.030Z,6.39
2022-11-13T08:33:25.085Z,6.39
2022-11-13T08:35:54.792Z,6.41
2022-11-13T08:38:22.959Z,6.41
2022-11-13T08:40:51.224Z,6.45
2022-11-13T08:43:19.457Z,6.49
2022-11-13T08:45:48.844Z,6.55
2022-11-13T08:48:16.700Z,6.59
2022-11-13T08:50:44.515Z,6.63
2022-11-13T08:53:12.780Z,6.67
2022-11-13T08:55:40.745Z,6.73
2022-11-13T08:58:08.745Z,6.80
2022-11-13T09:00:36.594Z,6.87
2022-11-13T09:03:05.885Z,6.94
2022-11-13T09:05:33.874Z,7.00
2022-11-13T09:08:02.720Z,7.07
2022-11-13T09:10:30.900Z,7.14
2022-11-13T09:12:59.619Z,7.22
2022-11-13T09:15:27.572Z,7.32
2022-11-13T09:17:58.390Z,7.43
2022-11-13T09:20:28.474Z,7.55
2022-11-13T09:23:00.202Z,7.65
2022-11-13T09:25:34.145Z,7.76
2022-11-13T09:28:06.030Z,7.84
2022-11-13T09:30:34.370Z,7.93
2022-11-13T09:33:02.748Z,7.99
2022-11-13T09:35:35.817Z,8.11
2022-11-13T09:38:10.503Z,8.24
2022-11-13T09:40:43.185Z,8.33
2022-11-13T09:43:21.579Z,8.41
2022-11-13T09:45:50.607Z,8.53
2022-11-13T09:48:26.959Z,8.62
2022-11-13T09:50:57.923Z,8.69
2022-11-13T09:53:27.433Z,8.76
2022-11-13T09:56:04.328Z,8.88
2022-11-13T09:58:44.893Z,8.96
2022-11-13T10:01:23.105Z,9.08
2022-11-13T10:04:02.674Z,9.21
2022-11-13T10:06:46.040Z,9.32
2022-11-13T10:09:23.123Z,9.45
2022-11-13T10:11:56.568Z,9.58
2022-11-13T10:14:30.992Z,9.69
2022-11-13T10:17:03.908Z,9.86
2022-11-13T10:19:37.448Z,9.98
2022-11-13T10:22:32.070Z,10.10
2022-11-13T10:25:10.459Z,10.22
2022-11-13T10:27:38.965Z,10.27
2022-11-13T10:30:14.320Z,10.33
2022-11-13T10:32:42.340Z,10.33
2022-11-13T10:35:33.997Z,10.36
2022-11-13T10:38:08.569Z,10.45
2022-11-13T10:40:39.793Z,10.56
2022-11-13T10:43:14.549Z,10.64
2022-11-13T10:45:42.968Z,10.72
2022-11-13T10:48:21.842Z,10.77
2022-11-13T10:50:58.762Z,10.89
2022-11-13T10:53:34.703Z,10.98
2022-11-13T10:56:02.601Z,11.07
2022-11-13T10:58:31.110Z,11.16
2022-11-13T11:00:59.611Z,11.26
2022-11-13T11:03:29.534Z,11.37
2022-11-13T11:05:59.249Z,11.48
2022-11-13T11:08:32.444Z,11.53
2022-11-13T11:11:19.789Z,11.66
2022-11-13T11:13:49.116Z,11.77
2022-11-13T11:16:22.113Z,11.84
2022-11-13T11:18:55.045Z,11.94
2022-11-13T11:21:37.708Z,12.00
2022-11-13T11:24:14.396Z,12.07
2022-11-13T11:26:47.810Z,12.10
2022-11-13T11:29:20.611Z,12.19
2022-11-13T11:31:55.099Z,12.24
2022-11-13T11:34:27.959Z,12.26
2022-11-13T11:37:04.248Z,12.30
2022-11-13T11:39:39.491Z,12.37
2022-11-13T11:42:16.619Z,12.48
2022-11-13T11:45:05.127Z,12.58
2022-11-13T11:47:34.526Z,12.67
2022-11-13T11:50:02.956Z,12.68
2022-11-13T11:52:47.105Z,12.67
2022-11-13T11:56:02.893Z,12.68
2022-11-13T11:59:07.597Z,12.72
2022-11-13T12:01:52.368Z,12.79
2022-11-13T12:04:36.142Z,12.85
2022-11-13T12:07:17.549Z,12.98
2022-11-13T12:09:55.834Z,13.03
2022-11-13T12:12:39.167Z,13.12
2022-11-13T12:15:13.528Z,13.26
2022-11-13T12:17:52.315Z,13.38
2022-11-13T12:20:27.665Z,13.46
2022-11-13T12:23:05.297Z,13.53
2022-11-13T12:25:40.777Z,13.62
2022-11-13T12:28:19.162Z,13.68
2022-11-13T12:31:01.653Z,13.74
2022-11-13T12:33:41.117Z,13.82
2022-11-13T12:36:12.222Z,13.90
2022-11-13T12:38:47.429Z,13.97
2022-11-13T12:41:25.401Z,14.08
2022-11-13T12:44:20.700Z,14.13
2022-11-13T12:46:49.684Z,14.16
2022-11-13T12:49:28.841Z,14.20
2022-11-13T12:51:59.222Z,14.28
2022-11-13T12:54:29.396Z,14.30
2022-11-13T12:57:19.700Z,14.35
2022-11-13T12:59:53.912Z,14.44
2022-11-13T13:02:41.088Z,14.54
2022-11-13T13:05:35.085Z,14.59
2022-11-13T13:08:16.269Z,14.60
2022-11-13T13:11:02.791Z,14.64
2022-11-13T13:13:41.545Z,14.69
2022-11-13T13:16:12.047Z,14.75
2022-11-13T13:18:40.901Z,14.81
2022-11-13T13:21:11.292Z,14.85
2022-11-13T13:23:41.567Z,14.85
2022-11-13T13:26:18.419Z,14.88
2022-11-13T13:28:51.520Z,14.92
2022-11-13T13:31:37.247Z,14.94
2022-11-13T13:34:31.102Z,15.03
2022-11-13T13:37:11.209Z,15.14
2022-11-13T13:39:50.043Z,15.17
2022-11-13T13:42:38.685Z,15.17
2022-11-13T13:45:26.475Z,15.16
2022-11-13T13:47:59.434Z,15.21
2022-11-13T13:50:30.667Z,15.25
2022-11-13T13:53:00.605Z,15.27
2022-11-13T13:55:35.477Z,15.27
2022-11-13T13:58:08.471Z,15.30
2022-11-13T14:00:53.290Z,15.32
2022-11-13T14:03:28.081Z,15.37
2022-11-13T14:05:59.377Z,15.39
2022-11-13T14:08:30.778Z,15.42
2022-11-13T14:10:58.789Z,15.44
2022-11-13T14:13:29.550Z,15.42
2022-11-13T14:16:04.750Z,15.38
2022-11-13T14:18:35.245Z,15.38
2022-11-13T14:21:06.281Z,15.33
2022-11-13T14:23:38.441Z,15.29
2022-11-13T14:26:07.559Z,15.23
2022-11-13T14:28:44.101Z,15.20
2022-11-13T14:31:15.118Z,15.18
2022-11-13T14:33:48.245Z,15.17
2022-11-13T14:36:17.672Z,15.14
2022-11-13T14:38:52.000Z,15.12
2022-11-13T14:41:24.438Z,15.07
2022-11-13T14:43:54.299Z,15.06
2022-11-13T14:46:34.878Z,14.99
2022-11-13T14:49:04.582Z,14.99
2022-11-13T14:51:34.758Z,14.94
2022-11-13T14:54:07.871Z,14.90
2022-11-13T14:56:39.472Z,14.85
2022-11-13T14:59:18.360Z,14.77
2022-11-13T15:01:55.118Z,14.68
2022-11-13T15:04:24.813Z,14.64
2022-11-13T15:06:55.889Z,14.55
2022-11-13T15:09:25.541Z,14.48
2022-11-13T15:11:53.958Z,14.40
2022-11-13T15:14:22.890Z,14.32
2022-11-13T15:16:54.028Z,14.23
2022-11-13T15:19:29.661Z,14.16
2022-11-13T15:22:26.050Z,14.09
2022-11-13T15:24:46.904Z,13.97
2022-11-13T15:27:16.179Z,13.91
2022-11-13T15:29:44.635Z,13.84
2022-11-13T15:32:13.639Z,13.76
2022-11-13T15:34:43.237Z,13.71
2022-11-13T15:37:13.786Z,13.63
2022-11-13T15:39:41.606Z,13.54
2022-11-13T15:42:16.436Z,13.45
2022-11-13T15:44:44.519Z,13.37
2022-11-13T15:47:26.968Z,13.26
2022-11-13T15:50:12.942Z,13.20
2022-11-13T15:52:43.934Z,13.11
2022-11-13T15:55:20.794Z,13.02
2022-11-13T15:57:48.763Z,12.94
2022-11-13T16:00:18.531Z,12.88
2022-11-13T16:02:50.308Z,12.82
2022-11-13T16:05:19.867Z,12.78
2022-11-13T16:07:48.471Z,12.73
2022-11-13T16:10:17.128Z,12.68
2022-11-13T16:12:45.862Z,12.61
2022-11-13T16:15:15.411Z,12.53
2022-11-13T16:17:47.561Z,12.45
2022-11-13T16:20:18.288Z,12.35
2022-11-13T16:22:47.981Z,12.26
2022-11-13T16:25:18.528Z,12.20
2022-11-13T16:27:47.154Z,12.13
2022-11-13T16:30:17.086Z,12.07
2022-11-13T16:32:44.923Z,11.98
2022-11-13T16:35:16.885Z,11.91
2022-11-13T16:37:45.076Z,11.85
2022-11-13T16:40:22.072Z,11.77
2022-11-13T16:42:50.097Z,11.74
2022-11-13T16:45:18.466Z,11.71
2022-11-13T16:47:46.956Z,11.66
2022-11-13T16:50:18.221Z,11.65
2022-11-13T16:52:46.181Z,11.60
2022-11-13T16:55:14.331Z,11.55
2022-11-13T16:57:43.601Z,11.47
2022-11-13T17:00:15.340Z,11.40
2022-11-13T17:02:43.214Z,11.33
2022-11-13T17:05:13.834Z,11.28
2022-11-13T17:07:41.955Z,11.22
2022-11-13T17:13:02.204Z,11.09
2022-11-13T17:15:30.283Z,11.05
2022-11-13T17:17:59.590Z,11.01
2022-11-13T17:20:27.824Z,10.96
2022-11-13T17:22:56.058Z,10.92
2022-11-13T17:25:26.707Z,10.88
2022-11-13T17:27:55.023Z,10.85
2022-11-13T17:30:25.079Z,10.84
2022-11-13T17:32:52.929Z,10.82
2022-11-13T17:35:20.824Z,10.80
2022-11-13T17:37:48.648Z,10.74
2022-11-13T17:40:17.347Z,10.69
2022-11-13T17:42:47.951Z,10.65
2022-11-13T17:45:15.925Z,10.59
2022-11-13T17:47:45.215Z,10.54
2022-11-13T17:50:13.051Z,10.49
2022-11-13T17:52:40.931Z,10.45
2022-11-13T17:55:11.881Z,10.40
2022-11-13T17:57:39.691Z,10.35
2022-11-13T18:00:08.867Z,10.31
2022-11-13T18:02:36.657Z,10.26
2022-11-13T18:05:06.762Z,10.23
2022-11-13T18:07:34.621Z,10.19
2022-11-13T18:10:02.512Z,10.16
2022-11-13T18:12:30.603Z,10.15
2022-11-13T18:14:58.465Z,10.14
2022-11-13T18:17:26.644Z,10.12
2022-11-13T18:20:01.345Z,10.09
2022-11-13T18:22:31.634Z,10.06
2022-11-13T18:25:01.438Z,10.02
2022-11-13T18:27:29.472Z,9.99
2022-11-13T18:29:57.361Z,9.96
2022-11-13T18:32:25.209Z,9.92
2022-11-13T18:34:52.997Z,9.88
2022-11-13T18:37:21.011Z,9.84
2022-11-13T18:39:50.220Z,9.80
2022-11-13T18:42:18.171Z,9.75
2022-11-13T18:44:46.044Z,9.73
2022-11-13T18:47:13.820Z,9.70
2022-11-13T18:49:41.827Z,9.67
2022-11-13T18:52:09.887Z,9.65
2022-11-13T18:54:37.989Z,9.63
2022-11-13T18:57:07.375Z,9.63
2022-11-13T18:59:35.279Z,9.63
2022-11-13T19:02:03.222Z,9.61
2022-11-13T19:04:31.206Z,9.58
2022-11-13T19:06:59.189Z,9.55
2022-11-13T19:09:27.530Z,9.50
2022-11-13T19:11:55.430Z,9.46
2022-11-13T19:14:24.858Z,9.43
2022-11-13T19:16:52.767Z,9.39
2022-11-13T19:19:23.371Z,9.33
2022-11-13T19:21:52.192Z,9.29
2022-11-13T19:24:20.261Z,9.26
2022-11-13T19:26:48.310Z,9.24
2022-11-13T19:29:16.336Z,9.21
2022-11-13T19:31:47.855Z,9.19
2022-11-13T19:34:15.791Z,9.16
2022-11-13T19:36:45.138Z,9.13
2022-11-13T19:39:13.788Z,9.12
2022-11-13T19:41:42.130Z,9.13
2022-11-13T19:44:11.258Z,9.13
2022-11-13T19:46:39.320Z,9.12
2022-11-13T19:49:09.618Z,9.11
2022-11-13T19:51:37.719Z,9.11
2022-11-13T19:54:05.714Z,9.10
2022-11-13T19:56:33.674Z,9.09
2022-11-13T19:59:02.368Z,9.05
2022-11-13T20:01:31.978Z,9.03
2022-11-13T20:04:03.002Z,9.01
2022-11-13T20:06:33.496Z,8.98
2022-11-13T20:09:02.648Z,8.96
2022-11-13T20:11:30.754Z,8.95
2022-11-13T20:13:59.032Z,8.93
2022-11-13T20:16:27.076Z,8.89
2022-11-13T20:18:57.866Z,8.86
2022-11-13T20:21:26.734Z,8.86
2022-11-13T20:23:57.531Z,8.86
2022-11-13T20:26:26.319Z,8.86
2022-11-13T20:28:54.412Z,8.83
2022-11-13T20:31:24.458Z,8.82
2022-11-13T20:33:54.853Z,8.76
2022-11-13T20:36:23.727Z,8.74
2022-11-13T20:38:54.292Z,8.74
2022-11-13T20:41:24.718Z,8.74
2022-11-13T20:43:55.843Z,8.72
2022-11-13T20:46:24.070Z,8.71
2022-11-13T20:48:52.200Z,8.69
2022-11-13T20:51:22.050Z,8.67
2022-11-13T20:53:50.834Z,8.66
2022-11-13T20:56:19.856Z,8.65
2022-11-13T20:58:49.527Z,8.63
2022-11-13T21:01:20.407Z,8.58
2022-11-13T21:03:49.425Z,8.55
2022-11-13T21:06:19.559Z,8.54
2022-11-13T21:08:48.448Z,8.55
2022-11-13T21:11:19.520Z,8.54
2022-11-13T21:13:49.702Z,8.53
2022-11-13T21:16:18.259Z,8.51
2022-11-13T21:18:46.427Z,8.49
2022-11-13T21:21:16.171Z,8.44
2022-11-13T21:23:44.074Z,8.41
2022-11-13T21:26:12.448Z,8.38
2022-11-13T21:28:40.802Z,8.34
2022-11-13T21:31:17.051Z,8.26
2022-11-13T21:33:46.872Z,8.24
2022-11-13T21:36:16.834Z,8.21
2022-11-13T21:38:44.812Z,8.21
2022-11-13T21:41:24.743Z,8.17
2022-11-13T21:43:55.119Z,8.14
2022-11-13T21:46:28.462Z,8.11
2022-11-13T21:48:57.840Z,8.08
2022-11-13T21:51:25.783Z,8.06
2022-11-13T21:53:53.891Z,8.07
2022-11-13T21:56:21.966Z,8.07
2022-11-13T21:58:49.787Z,8.09
2022-11-13T22:01:18.684Z,8.07
2022-11-13T22:03:47.969Z,8.04
2022-11-13T22:06:18.380Z,8.02
2022-11-13T22:08:48.260Z,7.98
2022-11-13T22:11:16.337Z,7.96
2022-11-13T22:13:44.248Z,7.91
2022-11-13T22:16:14.086Z,7.87
2022-11-13T22:18:42.050Z,7.84
2022-11-13T22:21:12.800Z,7.79
2022-11-13T22:23:41.117Z,7.74
2022-11-13T22:26:11.089Z,7.71
2022-11-13T22:28:41.321Z,7.68
2022-11-13T22:31:14.528Z,7.60
2022-11-13T22:33:48.165Z,7.57
2022-11-13T22:36:21.450Z,7.57
2022-11-13T22:38:49.891Z,7.59
2022-11-13T22:41:23.667Z,7.60
2022-11-13T22:43:53.481Z,7.61
2022-11-13T22:46:23.129Z,7.59
2022-11-13T22:48:52.621Z,7.56
2022-11-13T22:51:23.520Z,7.53
2022-11-13T22:53:53.355Z,7.51
2022-11-13T22:56:22.505Z,7.49
2022-11-13T22:58:51.025Z,7.44
2022-11-13T23:01:21.825Z,7.42
2022-11-13T23:03:50.869Z,7.39
2022-11-13T23:06:22.146Z,7.35
2022-11-13T23:08:51.179Z,7.33
2022-11-13T23:11:21.362Z,7.32
2022-11-13T23:13:51.359Z,7.29
2022-11-13T23:16:20.036Z,7.27
2022-11-13T23:18:48.828Z,7.25
2022-11-13T23:21:17.902Z,7.23
2022-11-13T23:23:47.349Z,7.22
2022-11-13T23:26:16.989Z,7.24
2022-11-13T23:28:45.124Z,7.24
2022-11-13T23:31:13.310Z,7.25
2022-11-13T23:33:41.542Z,7.22
2022-11-13T23:36:11.396Z,7.22
2022-11-13T23:38:39.420Z,7.21
2022-11-13T23:41:10.506Z,7.18
2022-11-13T23:46:26.635Z,7.14
2022-11-13T23:48:54.485Z,7.09
2022-11-13T23:51:22.493Z,7.06
2022-11-13T23:53:50.513Z,7.03
2022-11-13T23:56:19.679Z,6.99
2022-11-13T23:58:47.592Z,6.98
